CheckWX is a tool to help pilots better visualize weather data.  It is not intended as a substitute for an official pre-flight weather briefing.

09:08:05 UTC

79J METAR
South Alabama Regional at Bill Benton Field Airport
Andalusia, Alabama, USA
Current

12 mins ago

K79J 210856Z AUTO 10004KT 10SM CLR 22/17 A3019 RMK AO2 SLP218 T02170167 53002
Observed
Sep-21 @ 08:56 UTC
Wind
  • 100° at 4 KTS
Visibility
10 SM
Flight Rules
VFR
Cloud Levels
  • Clear skies
Temperature
22°C / 72°F
Dewpoint
17°C / 63°F
Humidity
73%
Altimeter
30.19" Hg
Pressure
1022.32 hPa
Previous

1 hour ago

K79J 210756Z AUTO 10004KT 10SM CLR 22/16 A3018 RMK AO2 SLP215 T02220161
Observed
Sep-21 @ 07:56 UTC
Wind
  • 100° at 4 KTS
Visibility
10 SM
Flight Rules
VFR
Cloud Levels
  • Clear skies
Temperature
22°C / 72°F
Dewpoint
16°C / 61°F
Humidity
69%
Altimeter
30.18" Hg
Pressure
1022.02 hPa
Previous

2 hours ago

K79J 210656Z AUTO 11003KT 10SM CLR 22/16 A3018 RMK AO2 SLP215 T02220161
Observed
Sep-21 @ 06:56 UTC
Wind
  • 110° at 3 KTS
Visibility
10 SM
Flight Rules
VFR
Cloud Levels
  • Clear skies
Temperature
22°C / 72°F
Dewpoint
16°C / 61°F
Humidity
69%
Altimeter
30.18" Hg
Pressure
1022.02 hPa